WetterOnline ( https://www.wetteronline.de )

Wetter aktuell Busdorf

Aktuelles Wetter: Schleswig (48m)

6-stündlich | Neueste Meldungen
Ortszeit Temperatur Wetter
Fr, 13.12. 1:00 2.1° C wolkenlos
Do, 12.12. 19:00 2.9° C wolkenlos
Do, 12.12. 13:00 5.1° C bedeckt
Do, 12.12. 7:00 4.1° C bedeckt
Do, 12.12. 1:00 4.9° C bewölkt
Mi, 11.12. 19:00 5.3° C bedeckt
Mi, 11.12. 13:00 5.7° C bedeckt
Mi, 11.12. 7:00 4.8° C leichter Regen
Ortszeit Temperatur Wetter
Fr, 13.12. 2:00 2.2° C wolkenlos
Fr, 13.12. 1:40 2.2° C wolkenlos
Fr, 13.12. 1:30 2.2° C leicht bewölkt
Fr, 13.12. 1:20 2.2° C leicht bewölkt
Fr, 13.12. 1:10 2.2° C leicht bewölkt
Fr, 13.12. 1:00 2.1° C wolkenlos
Fr, 13.12. 0:40 2.1° C wolkenlos
Fr, 13.12. 0:30 2.1° C fast wolkenlos
Fr, 13.12. 0:00 2.0° C fast wolkenlos
Do, 12.12. 23:30 2.1° C wolkenlos
Do, 12.12. 23:00 2.4° C bewölkt
Do, 12.12. 22:30 2.7° C bedeckt
Ortszeit Relative Feuchte Sichtweite
Fr, 13.12. 1:00 89% 23 km
Do, 12.12. 19:00 92% 9 km
Do, 12.12. 13:00 91% 10 km
Do, 12.12. 7:00 92% 6 km
Do, 12.12. 1:00 99% 3.1 km
Mi, 11.12. 19:00 97% 4.5 km
Mi, 11.12. 13:00 95% 11 km
Mi, 11.12. 7:00 95% 11 km
Ortszeit Relative Feuchte Sichtweite
Fr, 13.12. 2:00 86% 30 km
Fr, 13.12. 1:40 87% -
Fr, 13.12. 1:30 88% 23 km
Fr, 13.12. 1:20 88% -
Fr, 13.12. 1:10 88% -
Fr, 13.12. 1:00 89% 23 km
Fr, 13.12. 0:40 88% -
Fr, 13.12. 0:30 90% 16 km
Fr, 13.12. 0:00 90% 14 km
Do, 12.12. 23:30 92% 10 km
Do, 12.12. 23:00 93% 8 km
Do, 12.12. 22:30 92% 8 km
Ortszeit Niederschlagsmenge Niederschlagsart
Fr, 13.12. 1:00 0.0 l/m2 in 6 Std. -
Do, 12.12. 19:00 0.3 l/m2 in 12 Std. Regen
Do, 12.12. 13:00 0.2 l/m2 in 6 Std. Regen
Do, 12.12. 7:00 0.3 l/m2 in 12 Std. Sprühregen
Do, 12.12. 1:00 0.3 l/m2 in 6 Std. Regen
Mi, 11.12. 19:00 0.9 l/m2 in 12 Std. Sprühregen
Mi, 11.12. 13:00 0.9 l/m2 in 6 Std. Regen
Mi, 11.12. 7:00 2 l/m2 in 12 Std. Regen
Ortszeit Niederschlagsmenge Niederschlagsart
Fr, 13.12. 2:00 0.0 l/m2 in 1 Std. -
Fr, 13.12. 1:40 keine Meldung -
Fr, 13.12. 1:30 0.0 l/m2 in 1 Std. -
Fr, 13.12. 1:20 keine Meldung -
Fr, 13.12. 1:10 keine Meldung -
Fr, 13.12. 1:00 0.0 l/m2 in 1 Std. -
Fr, 13.12. 0:40 keine Meldung -
Fr, 13.12. 0:30 0.0 l/m2 in 1 Std. -
Fr, 13.12. 0:00 0.0 l/m2 in 1 Std. -
Do, 12.12. 23:30 0.0 l/m2 in 1 Std. -
Do, 12.12. 23:00 0.0 l/m2 in 1 Std. -
Do, 12.12. 22:30 0.0 l/m2 in 1 Std. -
Ortszeit Stärke Spitze Richtung
km/h Bft. km/h Grad Sektor
Fr, 13.12. 1:00 14 3 32 150° SO
Do, 12.12. 19:00 11 2 32 190° S
Do, 12.12. 13:00 13 3 33 210° SW
Do, 12.12. 7:00 11 2 22 210° SW
Do, 12.12. 1:00 7 2 18 200° S
Mi, 11.12. 19:00 7 2 25 190° S
Mi, 11.12. 13:00 14 3 40 220° SW
Mi, 11.12. 7:00 22 4 61 210° SW
Ortszeit Stärke Spitze Richtung
km/h Bft. km/h Grad Sektor
Fr, 13.12. 2:00 18 3 40 150° SO
Fr, 13.12. 1:40 18 3 - 150° SO
Fr, 13.12. 1:30 14 3 32 140° SO
Fr, 13.12. 1:20 14 3 - 140° SO
Fr, 13.12. 1:10 14 3 - 140° SO
Fr, 13.12. 1:00 14 3 32 150° SO
Fr, 13.12. 0:40 14 3 - 150° SO
Fr, 13.12. 0:30 14 3 29 150° SO
Fr, 13.12. 0:00 13 3 30 140° SO
Do, 12.12. 23:30 13 3 28 160° S
Do, 12.12. 23:00 14 3 32 160° S
Do, 12.12. 22:30 13 3 31 160° S
Ortszeit Untergrenze Bedeckung Gattung
total tief tief mittel hoch
Fr, 13.12. 1:00 540 m 0/8 0/8 - - -
Do, 12.12. 19:00 - 0/8 0/8 - - -
Do, 12.12. 13:00 270 m 8/8 8/8 - - -
Do, 12.12. 7:00 360 m 8/8 8/8 - - -
Do, 12.12. 1:00 60 m 7/8 7/8 - - -
Mi, 11.12. 19:00 120 m 8/8 8/8 - - -
Mi, 11.12. 13:00 150 m 8/8 8/8 - - -
Mi, 11.12. 7:00 270 m 8/8 8/8 - - -
Ortszeit Bedeckungsgrad in Achtel und Wolkenuntergrenze
Fr, 13.12. 2:00 keine Wolken
Fr, 13.12. 1:40 keine Wolken
Fr, 13.12. 1:30 1(330m)
Fr, 13.12. 1:20 1(330m) 2(540m)
Fr, 13.12. 1:10 1(330m) 3(540m)
Fr, 13.12. 1:00 1(540m)
Fr, 13.12. 0:40 keine Wolken
Fr, 13.12. 0:30 1(240m)
Fr, 13.12. 0:00 2(240m)
Do, 12.12. 23:30 keine Wolken
Do, 12.12. 23:00 7(210m)
Do, 12.12. 22:30 8(210m)
Ortszeit Luftdruck NN (hPa) Tendenz (hPa in 3 Std.)
Fr, 13.12. 1:00 989 - 3,4
Do, 12.12. 19:00 995 - 1,5
Do, 12.12. 13:00 997 - 1,1
Do, 12.12. 7:00 1000 - 0,6
Do, 12.12. 1:00 1002 - 1,2
Mi, 11.12. 19:00 1004 - 0,7
Mi, 11.12. 13:00 1006 - 0,9
Mi, 11.12. 7:00 1006 - 0,3
Ortszeit Luftdruck NN (hPa) Tendenz (hPa in 3 Std.)
Fr, 13.12. 2:00 988 - 3,9
Fr, 13.12. 1:40 988 keine Meldung
Fr, 13.12. 1:30 989 - 3,6
Fr, 13.12. 1:20 989 keine Meldung
Fr, 13.12. 1:10 989 keine Meldung
Fr, 13.12. 1:00 989 - 3,4
Fr, 13.12. 0:40 989 keine Meldung
Fr, 13.12. 0:30 990 - 3,2
Fr, 13.12. 0:00 991 - 3,1
Do, 12.12. 23:30 991 - 2,7
Do, 12.12. 23:00 992 - 2,6
Do, 12.12. 22:30 992 - 2,7
Ortszeit Schneehöhe (cm)
Fr, 13.12. 1:00 0
Do, 12.12. 19:00 0
Do, 12.12. 13:00 0
Do, 12.12. 7:00 0
Do, 12.12. 1:00 0
Mi, 11.12. 19:00 0
Mi, 11.12. 13:00 0
Mi, 11.12. 7:00 0
Ortszeit Schneehöhe (cm)
Fr, 13.12. 2:00 0
Fr, 13.12. 1:40 0
Fr, 13.12. 1:30 0
Fr, 13.12. 1:20 0
Fr, 13.12. 1:10 0
Fr, 13.12. 1:00 0
Fr, 13.12. 0:40 0
Fr, 13.12. 0:30 0
Fr, 13.12. 0:00 0
Do, 12.12. 23:30 0
Do, 12.12. 23:00 0
Do, 12.12. 22:30 0
Link zu dieser Seite / Seite empfehlen

Das Wetter in ...